sensor_id;sensor_type;location;lat;lon;timestamp;P1;durP1;ratioP1;P2;durP2;ratioP2
23302;SDS011;11820;48.738;9.092;2023-08-01T00:00:08;5.33;;;3.40;;
23302;SDS011;11820;48.738;9.092;2023-08-01T00:02:34;5.30;;;3.40;;
23302;SDS011;11820;48.738;9.092;2023-08-01T00:04:59;4.57;;;3.50;;
23302;SDS011;11820;48.738;9.092;2023-08-01T00:07:28;5.30;;;3.33;;
23302;SDS011;11820;48.738;9.092;2023-08-01T00:09:53;3.57;;;3.00;;
23302;SDS011;11820;48.738;9.092;2023-08-01T00:12:18;5.77;;;4.13;;
23302;SDS011;11820;48.738;9.092;2023-08-01T00:14:44;5.43;;;3.83;;
23302;SDS011;11820;48.738;9.092;2023-08-01T00:17:09;5.80;;;3.67;;
23302;SDS011;11820;48.738;9.092;2023-08-01T00:19:35;4.17;;;3.17;;
23302;SDS011;11820;48.738;9.092;2023-08-01T00:22:00;4.17;;;3.13;;
23302;SDS011;11820;48.738;9.092;2023-08-01T00:24:25;5.07;;;3.60;;
23302;SDS011;11820;48.738;9.092;2023-08-01T00:26:51;5.23;;;3.13;;
23302;SDS011;11820;48.738;9.092;2023-08-01T00:29:20;7.60;;;3.33;;
23302;SDS011;11820;48.738;9.092;2023-08-01T00:31:45;6.77;;;4.07;;
23302;SDS011;11820;48.738;9.092;2023-08-01T00:34:10;4.60;;;3.40;;
23302;SDS011;11820;48.738;9.092;2023-08-01T00:36:36;6.97;;;3.67;;
23302;SDS011;11820;48.738;9.092;2023-08-01T00:39:01;4.80;;;3.47;;
23302;SDS011;11820;48.738;9.092;2023-08-01T00:41:26;8.17;;;4.10;;
23302;SDS011;11820;48.738;9.092;2023-08-01T00:43:52;6.70;;;3.93;;
23302;SDS011;11820;48.738;9.092;2023-08-01T00:46:17;8.33;;;4.20;;
23302;SDS011;11820;48.738;9.092;2023-08-01T00:48:42;5.27;;;3.73;;
23302;SDS011;11820;48.738;9.092;2023-08-01T00:51:08;7.27;;;3.77;;
23302;SDS011;11820;48.738;9.092;2023-08-01T00:53:35;5.00;;;3.93;;
23302;SDS011;11820;48.738;9.092;2023-08-01T00:56:01;5.30;;;3.90;;
23302;SDS011;11820;48.738;9.092;2023-08-01T00:58:26;7.57;;;3.50;;
23302;SDS011;11820;48.738;9.092;2023-08-01T01:00:52;5.73;;;3.77;;
23302;SDS011;11820;48.738;9.092;2023-08-01T01:03:17;6.40;;;3.53;;
23302;SDS011;11820;48.738;9.092;2023-08-01T01:05:52;5.57;;;3.30;;
23302;SDS011;11820;48.738;9.092;2023-08-01T01:08:21;5.40;;;3.70;;
23302;SDS011;11820;48.738;9.092;2023-08-01T01:10:46;4.37;;;3.40;;
23302;SDS011;11820;48.738;9.092;2023-08-01T01:13:12;7.13;;;3.63;;
23302;SDS011;11820;48.738;9.092;2023-08-01T01:15:37;6.90;;;3.87;;
23302;SDS011;11820;48.738;9.092;2023-08-01T01:18:02;4.90;;;3.40;;
23302;SDS011;11820;48.738;9.092;2023-08-01T01:20:33;8.43;;;3.70;;
23302;SDS011;11820;48.738;9.092;2023-08-01T01:23:02;5.10;;;3.70;;
23302;SDS011;11820;48.738;9.092;2023-08-01T01:25:29;6.57;;;3.80;;
23302;SDS011;11820;48.738;9.092;2023-08-01T01:27:55;6.20;;;3.37;;
23302;SDS011;11820;48.738;9.092;2023-08-01T01:30:22;4.23;;;3.33;;
23302;SDS011;11820;48.738;9.092;2023-08-01T01:32:48;4.90;;;3.83;;
23302;SDS011;11820;48.738;9.092;2023-08-01T01:35:14;5.17;;;3.80;;
23302;SDS011;11820;48.738;9.092;2023-08-01T01:37:39;6.83;;;3.77;;
23302;SDS011;11820;48.738;9.092;2023-08-01T01:40:05;4.50;;;3.97;;
23302;SDS011;11820;48.738;9.092;2023-08-01T01:42:31;5.73;;;4.33;;
23302;SDS011;11820;48.738;9.092;2023-08-01T01:44:56;5.53;;;3.10;;
23302;SDS011;11820;48.738;9.092;2023-08-01T01:47:21;4.20;;;3.47;;
23302;SDS011;11820;48.738;9.092;2023-08-01T01:49:46;5.50;;;4.10;;
23302;SDS011;11820;48.738;9.092;2023-08-01T01:52:12;5.13;;;3.67;;
23302;SDS011;11820;48.738;9.092;2023-08-01T01:54:37;6.83;;;3.97;;
23302;SDS011;11820;48.738;9.092;2023-08-01T01:57:02;4.67;;;3.87;;
23302;SDS011;11820;48.738;9.092;2023-08-01T01:59:28;6.97;;;4.00;;
23302;SDS011;11820;48.738;9.092;2023-08-01T02:01:53;6.13;;;3.50;;
23302;SDS011;11820;48.738;9.092;2023-08-01T02:04:18;4.13;;;3.63;;
23302;SDS011;11820;48.738;9.092;2023-08-01T02:06:44;5.07;;;4.10;;
23302;SDS011;11820;48.738;9.092;2023-08-01T02:09:09;6.53;;;3.67;;
23302;SDS011;11820;48.738;9.092;2023-08-01T02:11:34;5.77;;;3.43;;
23302;SDS011;11820;48.738;9.092;2023-08-01T02:14:00;4.77;;;3.60;;
23302;SDS011;11820;48.738;9.092;2023-08-01T02:16:26;6.17;;;3.97;;
23302;SDS011;11820;48.738;9.092;2023-08-01T02:18:52;6.53;;;4.10;;
23302;SDS011;11820;48.738;9.092;2023-08-01T02:21:17;6.60;;;3.93;;
23302;SDS011;11820;48.738;9.092;2023-08-01T02:23:42;5.93;;;3.40;;
23302;SDS011;11820;48.738;9.092;2023-08-01T02:26:08;4.10;;;3.70;;
23302;SDS011;11820;48.738;9.092;2023-08-01T02:28:33;5.83;;;4.47;;
23302;SDS011;11820;48.738;9.092;2023-08-01T02:30:58;7.27;;;3.57;;
23302;SDS011;11820;48.738;9.092;2023-08-01T02:33:24;5.40;;;3.67;;
23302;SDS011;11820;48.738;9.092;2023-08-01T02:35:49;6.07;;;4.13;;
23302;SDS011;11820;48.738;9.092;2023-08-01T02:38:14;6.50;;;3.77;;
23302;SDS011;11820;48.738;9.092;2023-08-01T02:40:40;6.53;;;3.87;;
23302;SDS011;11820;48.738;9.092;2023-08-01T02:43:05;7.47;;;3.67;;
23302;SDS011;11820;48.738;9.092;2023-08-01T02:45:30;4.27;;;3.53;;
23302;SDS011;11820;48.738;9.092;2023-08-01T02:47:56;7.07;;;4.33;;
23302;SDS011;11820;48.738;9.092;2023-08-01T02:50:21;8.00;;;4.53;;
23302;SDS011;11820;48.738;9.092;2023-08-01T02:52:46;8.20;;;3.83;;
23302;SDS011;11820;48.738;9.092;2023-08-01T02:55:12;6.40;;;4.20;;
23302;SDS011;11820;48.738;9.092;2023-08-01T02:57:37;5.43;;;3.83;;
23302;SDS011;11820;48.738;9.092;2023-08-01T03:00:03;5.10;;;3.53;;
23302;SDS011;11820;48.738;9.092;2023-08-01T03:02:30;8.83;;;3.87;;
23302;SDS011;11820;48.738;9.092;2023-08-01T03:04:56;6.37;;;4.00;;
23302;SDS011;11820;48.738;9.092;2023-08-01T03:07:21;5.23;;;4.00;;
23302;SDS011;11820;48.738;9.092;2023-08-01T03:09:47;7.53;;;4.23;;
23302;SDS011;11820;48.738;9.092;2023-08-01T03:12:12;4.77;;;3.70;;
23302;SDS011;11820;48.738;9.092;2023-08-01T03:14:37;4.93;;;3.77;;
23302;SDS011;11820;48.738;9.092;2023-08-01T03:17:03;5.23;;;3.80;;
23302;SDS011;11820;48.738;9.092;2023-08-01T03:19:28;7.53;;;4.60;;
23302;SDS011;11820;48.738;9.092;2023-08-01T03:21:53;4.67;;;3.50;;
23302;SDS011;11820;48.738;9.092;2023-08-01T03:24:19;5.30;;;3.80;;
23302;SDS011;11820;48.738;9.092;2023-08-01T03:26:44;5.03;;;3.57;;
23302;SDS011;11820;48.738;9.092;2023-08-01T03:29:09;5.67;;;3.53;;
23302;SDS011;11820;48.738;9.092;2023-08-01T03:31:35;5.90;;;3.90;;
23302;SDS011;11820;48.738;9.092;2023-08-01T03:34:00;4.23;;;3.20;;
23302;SDS011;11820;48.738;9.092;2023-08-01T03:36:25;6.00;;;3.77;;
23302;SDS011;11820;48.738;9.092;2023-08-01T03:38:51;3.43;;;3.13;;
23302;SDS011;11820;48.738;9.092;2023-08-01T03:41:16;6.93;;;4.03;;
23302;SDS011;11820;48.738;9.092;2023-08-01T03:43:41;5.80;;;4.27;;
23302;SDS011;11820;48.738;9.092;2023-08-01T03:46:07;6.30;;;3.97;;
23302;SDS011;11820;48.738;9.092;2023-08-01T03:48:32;5.60;;;3.53;;
23302;SDS011;11820;48.738;9.092;2023-08-01T03:50:57;5.00;;;3.37;;
23302;SDS011;11820;48.738;9.092;2023-08-01T03:53:23;5.80;;;3.57;;
23302;SDS011;11820;48.738;9.092;2023-08-01T03:55:48;4.13;;;3.43;;
23302;SDS011;11820;48.738;9.092;2023-08-01T03:58:14;5.27;;;3.70;;
23302;SDS011;11820;48.738;9.092;2023-08-01T04:00:40;6.63;;;3.50;;
23302;SDS011;11820;48.738;9.092;2023-08-01T04:03:05;6.00;;;3.70;;
23302;SDS011;11820;48.738;9.092;2023-08-01T04:05:30;5.83;;;3.30;;
23302;SDS011;11820;48.738;9.092;2023-08-01T04:07:56;6.97;;;3.87;;
23302;SDS011;11820;48.738;9.092;2023-08-01T04:10:22;5.50;;;3.40;;
23302;SDS011;11820;48.738;9.092;2023-08-01T04:12:47;5.27;;;3.17;;
23302;SDS011;11820;48.738;9.092;2023-08-01T04:15:13;5.00;;;3.10;;
23302;SDS011;11820;48.738;9.092;2023-08-01T04:17:38;6.00;;;3.53;;
23302;SDS011;11820;48.738;9.092;2023-08-01T04:20:04;4.90;;;3.60;;
23302;SDS011;11820;48.738;9.092;2023-08-01T04:22:29;6.53;;;3.23;;
23302;SDS011;11820;48.738;9.092;2023-08-01T04:24:55;5.47;;;3.13;;
23302;SDS011;11820;48.738;9.092;2023-08-01T04:27:20;6.40;;;3.73;;
23302;SDS011;11820;48.738;9.092;2023-08-01T04:29:46;6.03;;;3.47;;
23302;SDS011;11820;48.738;9.092;2023-08-01T04:32:12;8.63;;;3.13;;
23302;SDS011;11820;48.738;9.092;2023-08-01T04:34:39;6.07;;;3.03;;
23302;SDS011;11820;48.738;9.092;2023-08-01T04:37:05;5.27;;;3.63;;
23302;SDS011;11820;48.738;9.092;2023-08-01T04:39:30;6.10;;;3.17;;
23302;SDS011;11820;48.738;9.092;2023-08-01T04:41:56;6.17;;;3.47;;
23302;SDS011;11820;48.738;9.092;2023-08-01T04:44:21;5.60;;;3.40;;
23302;SDS011;11820;48.738;9.092;2023-08-01T04:46:47;5.70;;;2.93;;
23302;SDS011;11820;48.738;9.092;2023-08-01T04:49:13;6.17;;;2.83;;
23302;SDS011;11820;48.738;9.092;2023-08-01T04:51:39;5.43;;;3.20;;
23302;SDS011;11820;48.738;9.092;2023-08-01T04:54:04;5.13;;;3.00;;
23302;SDS011;11820;48.738;9.092;2023-08-01T04:56:29;5.83;;;3.13;;
23302;SDS011;11820;48.738;9.092;2023-08-01T04:58:55;4.80;;;3.20;;
23302;SDS011;11820;48.738;9.092;2023-08-01T05:01:20;4.43;;;2.97;;
23302;SDS011;11820;48.738;9.092;2023-08-01T05:03:46;4.73;;;3.07;;
23302;SDS011;11820;48.738;9.092;2023-08-01T05:06:11;6.23;;;3.70;;
23302;SDS011;11820;48.738;9.092;2023-08-01T05:08:36;6.07;;;3.70;;
23302;SDS011;11820;48.738;9.092;2023-08-01T05:11:02;5.27;;;3.30;;
23302;SDS011;11820;48.738;9.092;2023-08-01T05:13:27;4.67;;;3.43;;
23302;SDS011;11820;48.738;9.092;2023-08-01T05:15:53;6.07;;;3.30;;
23302;SDS011;11820;48.738;9.092;2023-08-01T05:18:18;5.80;;;3.87;;
23302;SDS011;11820;48.738;9.092;2023-08-01T05:20:44;7.33;;;4.17;;
23302;SDS011;11820;48.738;9.092;2023-08-01T05:23:09;7.93;;;4.33;;
23302;SDS011;11820;48.738;9.092;2023-08-01T05:25:35;8.27;;;4.07;;
23302;SDS011;11820;48.738;9.092;2023-08-01T05:28:00;5.93;;;4.20;;
23302;SDS011;11820;48.738;9.092;2023-08-01T05:30:25;6.47;;;3.50;;
23302;SDS011;11820;48.738;9.092;2023-08-01T05:32:51;6.97;;;3.70;;
23302;SDS011;11820;48.738;9.092;2023-08-01T05:35:17;5.57;;;3.80;;
23302;SDS011;11820;48.738;9.092;2023-08-01T05:37:42;6.27;;;3.70;;
23302;SDS011;11820;48.738;9.092;2023-08-01T05:40:08;4.23;;;3.53;;
23302;SDS011;11820;48.738;9.092;2023-08-01T05:42:34;8.00;;;4.17;;
23302;SDS011;11820;48.738;9.092;2023-08-01T05:44:59;5.67;;;4.13;;
23302;SDS011;11820;48.738;9.092;2023-08-01T05:47:24;5.00;;;3.80;;
23302;SDS011;11820;48.738;9.092;2023-08-01T05:49:50;6.47;;;3.63;;
23302;SDS011;11820;48.738;9.092;2023-08-01T05:52:15;5.47;;;3.97;;
23302;SDS011;11820;48.738;9.092;2023-08-01T05:54:40;8.43;;;3.80;;
23302;SDS011;11820;48.738;9.092;2023-08-01T05:57:06;7.43;;;4.33;;
23302;SDS011;11820;48.738;9.092;2023-08-01T05:59:32;5.90;;;4.03;;
23302;SDS011;11820;48.738;9.092;2023-08-01T06:01:57;6.10;;;3.93;;
23302;SDS011;11820;48.738;9.092;2023-08-01T06:04:23;5.30;;;4.07;;
23302;SDS011;11820;48.738;9.092;2023-08-01T06:06:48;5.77;;;3.83;;
23302;SDS011;11820;48.738;9.092;2023-08-01T06:09:14;6.23;;;3.80;;
23302;SDS011;11820;48.738;9.092;2023-08-01T06:11:39;5.40;;;3.50;;
23302;SDS011;11820;48.738;9.092;2023-08-01T06:14:04;5.03;;;3.33;;
23302;SDS011;11820;48.738;9.092;2023-08-01T06:16:30;5.53;;;3.33;;
23302;SDS011;11820;48.738;9.092;2023-08-01T06:18:55;6.10;;;3.57;;
23302;SDS011;11820;48.738;9.092;2023-08-01T06:21:21;5.07;;;3.70;;
23302;SDS011;11820;48.738;9.092;2023-08-01T06:23:47;5.97;;;3.83;;
23302;SDS011;11820;48.738;9.092;2023-08-01T06:26:12;4.70;;;3.50;;
23302;SDS011;11820;48.738;9.092;2023-08-01T06:28:37;9.10;;;3.87;;
23302;SDS011;11820;48.738;9.092;2023-08-01T06:31:02;4.83;;;4.07;;
23302;SDS011;11820;48.738;9.092;2023-08-01T06:33:28;5.70;;;3.87;;
23302;SDS011;11820;48.738;9.092;2023-08-01T06:35:53;5.60;;;4.33;;
23302;SDS011;11820;48.738;9.092;2023-08-01T06:38:18;7.90;;;5.00;;
23302;SDS011;11820;48.738;9.092;2023-08-01T06:40:44;6.37;;;5.13;;
23302;SDS011;11820;48.738;9.092;2023-08-01T06:43:09;8.43;;;5.33;;
23302;SDS011;11820;48.738;9.092;2023-08-01T06:45:34;7.40;;;5.43;;
23302;SDS011;11820;48.738;9.092;2023-08-01T06:48:00;6.60;;;4.93;;
23302;SDS011;11820;48.738;9.092;2023-08-01T06:50:25;7.97;;;5.87;;
23302;SDS011;11820;48.738;9.092;2023-08-01T06:52:50;8.10;;;5.73;;
23302;SDS011;11820;48.738;9.092;2023-08-01T06:55:16;8.67;;;5.77;;
23302;SDS011;11820;48.738;9.092;2023-08-01T06:57:41;8.90;;;6.30;;
23302;SDS011;11820;48.738;9.092;2023-08-01T07:00:07;10.43;;;6.47;;
23302;SDS011;11820;48.738;9.092;2023-08-01T07:02:33;8.70;;;5.90;;
23302;SDS011;11820;48.738;9.092;2023-08-01T07:04:58;7.83;;;5.90;;
23302;SDS011;11820;48.738;9.092;2023-08-01T07:07:23;6.80;;;5.50;;
23302;SDS011;11820;48.738;9.092;2023-08-01T07:09:49;7.57;;;5.73;;
23302;SDS011;11820;48.738;9.092;2023-08-01T07:12:14;8.80;;;5.80;;
23302;SDS011;11820;48.738;9.092;2023-08-01T07:14:39;10.50;;;6.17;;
23302;SDS011;11820;48.738;9.092;2023-08-01T07:17:05;9.10;;;6.17;;
23302;SDS011;11820;48.738;9.092;2023-08-01T07:19:30;8.87;;;6.13;;
23302;SDS011;11820;48.738;9.092;2023-08-01T07:21:55;8.30;;;5.63;;
23302;SDS011;11820;48.738;9.092;2023-08-01T07:24:21;6.47;;;5.60;;
23302;SDS011;11820;48.738;9.092;2023-08-01T07:26:46;7.97;;;6.00;;
23302;SDS011;11820;48.738;9.092;2023-08-01T07:29:11;7.60;;;5.63;;
23302;SDS011;11820;48.738;9.092;2023-08-01T07:31:40;7.10;;;5.20;;
23302;SDS011;11820;48.738;9.092;2023-08-01T07:34:06;7.83;;;5.17;;
23302;SDS011;11820;48.738;9.092;2023-08-01T07:36:31;7.70;;;5.80;;
23302;SDS011;11820;48.738;9.092;2023-08-01T07:38:57;9.30;;;5.70;;
23302;SDS011;11820;48.738;9.092;2023-08-01T07:41:22;8.90;;;4.53;;
23302;SDS011;11820;48.738;9.092;2023-08-01T07:43:47;9.40;;;4.93;;
23302;SDS011;11820;48.738;9.092;2023-08-01T07:46:13;6.60;;;5.23;;
23302;SDS011;11820;48.738;9.092;2023-08-01T07:48:39;6.87;;;4.87;;
23302;SDS011;11820;48.738;9.092;2023-08-01T07:51:04;5.50;;;4.30;;
23302;SDS011;11820;48.738;9.092;2023-08-01T07:53:30;7.37;;;4.40;;
23302;SDS011;11820;48.738;9.092;2023-08-01T07:55:56;6.43;;;4.73;;
23302;SDS011;11820;48.738;9.092;2023-08-01T07:58:21;6.43;;;4.00;;
23302;SDS011;11820;48.738;9.092;2023-08-01T08:00:47;6.43;;;3.93;;
23302;SDS011;11820;48.738;9.092;2023-08-01T08:03:13;3.80;;;3.03;;
23302;SDS011;11820;48.738;9.092;2023-08-01T08:05:39;4.90;;;2.90;;
23302;SDS011;11820;48.738;9.092;2023-08-01T08:08:05;3.77;;;2.70;;
23302;SDS011;11820;48.738;9.092;2023-08-01T08:10:31;5.07;;;3.10;;
23302;SDS011;11820;48.738;9.092;2023-08-01T08:12:56;4.07;;;3.23;;
23302;SDS011;11820;48.738;9.092;2023-08-01T08:15:22;3.70;;;3.13;;
23302;SDS011;11820;48.738;9.092;2023-08-01T08:17:48;5.27;;;3.33;;
23302;SDS011;11820;48.738;9.092;2023-08-01T08:20:14;6.03;;;3.27;;
23302;SDS011;11820;48.738;9.092;2023-08-01T08:22:39;4.10;;;3.07;;
23302;SDS011;11820;48.738;9.092;2023-08-01T08:25:04;3.50;;;2.57;;
23302;SDS011;11820;48.738;9.092;2023-08-01T08:27:30;4.67;;;2.90;;
23302;SDS011;11820;48.738;9.092;2023-08-01T08:29:55;3.03;;;2.73;;
23302;SDS011;11820;48.738;9.092;2023-08-01T08:32:21;7.70;;;2.70;;
23302;SDS011;11820;48.738;9.092;2023-08-01T08:34:46;5.40;;;2.90;;
23302;SDS011;11820;48.738;9.092;2023-08-01T08:37:11;4.63;;;3.00;;
23302;SDS011;11820;48.738;9.092;2023-08-01T08:39:36;3.70;;;2.90;;
23302;SDS011;11820;48.738;9.092;2023-08-01T08:42:02;4.07;;;2.57;;
23302;SDS011;11820;48.738;9.092;2023-08-01T08:44:27;5.60;;;3.10;;
23302;SDS011;11820;48.738;9.092;2023-08-01T08:47:00;5.43;;;3.37;;
23302;SDS011;11820;48.738;9.092;2023-08-01T08:49:29;3.10;;;2.80;;
23302;SDS011;11820;48.738;9.092;2023-08-01T08:51:55;5.47;;;2.93;;
23302;SDS011;11820;48.738;9.092;2023-08-01T08:54:21;4.93;;;3.53;;
23302;SDS011;11820;48.738;9.092;2023-08-01T08:56:47;3.93;;;2.93;;
23302;SDS011;11820;48.738;9.092;2023-08-01T08:59:13;4.20;;;2.80;;
23302;SDS011;11820;48.738;9.092;2023-08-01T09:01:39;7.43;;;3.10;;
23302;SDS011;11820;48.738;9.092;2023-08-01T09:04:05;3.73;;;2.50;;
23302;SDS011;11820;48.738;9.092;2023-08-01T09:06:31;4.20;;;2.23;;
23302;SDS011;11820;48.738;9.092;2023-08-01T09:11:34;3.20;;;2.90;;
23302;SDS011;11820;48.738;9.092;2023-08-01T09:14:07;3.37;;;2.37;;
23302;SDS011;11820;48.738;9.092;2023-08-01T09:16:32;3.00;;;2.40;;
23302;SDS011;11820;48.738;9.092;2023-08-01T09:18:58;3.57;;;2.20;;
23302;SDS011;11820;48.738;9.092;2023-08-01T09:21:23;2.57;;;2.10;;
23302;SDS011;11820;48.738;9.092;2023-08-01T09:23:52;2.27;;;2.00;;
23302;SDS011;11820;48.738;9.092;2023-08-01T09:26:19;3.43;;;2.10;;
23302;SDS011;11820;48.738;9.092;2023-08-01T09:29:05;4.10;;;1.73;;
23302;SDS011;11820;48.738;9.092;2023-08-01T09:31:31;3.63;;;2.10;;
23302;SDS011;11820;48.738;9.092;2023-08-01T09:33:58;4.57;;;2.40;;
23302;SDS011;11820;48.738;9.092;2023-08-01T09:36:24;2.87;;;1.60;;
23302;SDS011;11820;48.738;9.092;2023-08-01T09:38:50;2.43;;;1.73;;
23302;SDS011;11820;48.738;9.092;2023-08-01T09:41:19;2.67;;;1.80;;
23302;SDS011;11820;48.738;9.092;2023-08-01T09:43:45;2.00;;;1.63;;
23302;SDS011;11820;48.738;9.092;2023-08-01T09:46:12;2.70;;;1.67;;
23302;SDS011;11820;48.738;9.092;2023-08-01T09:48:38;1.67;;;1.30;;
23302;SDS011;11820;48.738;9.092;2023-08-01T09:51:07;3.63;;;1.30;;
23302;SDS011;11820;48.738;9.092;2023-08-01T09:53:34;1.33;;;1.07;;
23302;SDS011;11820;48.738;9.092;2023-08-01T09:56:00;1.70;;;1.10;;
23302;SDS011;11820;48.738;9.092;2023-08-01T09:58:29;1.80;;;0.90;;
23302;SDS011;11820;48.738;9.092;2023-08-01T10:00:59;1.87;;;1.10;;
23302;SDS011;11820;48.738;9.092;2023-08-01T10:03:28;1.43;;;0.70;;
23302;SDS011;11820;48.738;9.092;2023-08-01T10:05:54;3.00;;;0.80;;
23302;SDS011;11820;48.738;9.092;2023-08-01T10:08:21;1.40;;;0.50;;
23302;SDS011;11820;48.738;9.092;2023-08-01T10:10:48;0.63;;;0.63;;
23302;SDS011;11820;48.738;9.092;2023-08-01T10:13:13;1.23;;;0.93;;
23302;SDS011;11820;48.738;9.092;2023-08-01T10:15:39;0.80;;;0.73;;
23302;SDS011;11820;48.738;9.092;2023-08-01T10:18:05;0.93;;;0.63;;
23302;SDS011;11820;48.738;9.092;2023-08-01T10:20:31;2.83;;;0.90;;
23302;SDS011;11820;48.738;9.092;2023-08-01T10:22:57;2.10;;;0.70;;
23302;SDS011;11820;48.738;9.092;2023-08-01T10:25:24;0.80;;;0.50;;
23302;SDS011;11820;48.738;9.092;2023-08-01T10:28:01;0.60;;;0.50;;
23302;SDS011;11820;48.738;9.092;2023-08-01T10:30:30;1.97;;;0.70;;
23302;SDS011;11820;48.738;9.092;2023-08-01T10:32:56;0.77;;;0.60;;
23302;SDS011;11820;48.738;9.092;2023-08-01T10:35:35;1.33;;;0.50;;
23302;SDS011;11820;48.738;9.092;2023-08-01T10:38:11;1.07;;;0.70;;
23302;SDS011;11820;48.738;9.092;2023-08-01T10:40:38;0.93;;;0.67;;
23302;SDS011;11820;48.738;9.092;2023-08-01T10:45:48;2.60;;;0.70;;
23302;SDS011;11820;48.738;9.092;2023-08-01T10:48:24;0.87;;;0.50;;
23302;SDS011;11820;48.738;9.092;2023-08-01T10:50:56;0.73;;;0.60;;
23302;SDS011;11820;48.738;9.092;2023-08-01T10:53:21;1.43;;;0.60;;
23302;SDS011;11820;48.738;9.092;2023-08-01T10:55:47;1.37;;;0.93;;
23302;SDS011;11820;48.738;9.092;2023-08-01T10:58:14;0.60;;;0.60;;
23302;SDS011;11820;48.738;9.092;2023-08-01T11:00:41;0.70;;;0.70;;
23302;SDS011;11820;48.738;9.092;2023-08-01T11:03:07;1.27;;;0.70;;
23302;SDS011;11820;48.738;9.092;2023-08-01T11:05:32;1.63;;;0.80;;
23302;SDS011;11820;48.738;9.092;2023-08-01T11:07:58;0.83;;;0.80;;
23302;SDS011;11820;48.738;9.092;2023-08-01T11:10:25;1.03;;;0.90;;
23302;SDS011;11820;48.738;9.092;2023-08-01T11:12:52;1.97;;;0.80;;
23302;SDS011;11820;48.738;9.092;2023-08-01T11:15:18;1.03;;;0.90;;
23302;SDS011;11820;48.738;9.092;2023-08-01T11:17:48;0.53;;;0.50;;
23302;SDS011;11820;48.738;9.092;2023-08-01T11:20:15;0.70;;;0.70;;
23302;SDS011;11820;48.738;9.092;2023-08-01T11:22:52;0.87;;;0.80;;
23302;SDS011;11820;48.738;9.092;2023-08-01T11:25:34;1.23;;;0.90;;
23302;SDS011;11820;48.738;9.092;2023-08-01T11:28:13;1.20;;;0.90;;
23302;SDS011;11820;48.738;9.092;2023-08-01T11:30:39;1.33;;;1.03;;
23302;SDS011;11820;48.738;9.092;2023-08-01T11:35:54;0.97;;;0.90;;
23302;SDS011;11820;48.738;9.092;2023-08-01T11:38:25;1.07;;;0.90;;
23302;SDS011;11820;48.738;9.092;2023-08-01T11:40:51;3.00;;;1.40;;
23302;SDS011;11820;48.738;9.092;2023-08-01T11:43:17;3.40;;;1.27;;
23302;SDS011;11820;48.738;9.092;2023-08-01T11:45:50;1.47;;;1.00;;
23302;SDS011;11820;48.738;9.092;2023-08-01T11:48:16;1.63;;;1.00;;
23302;SDS011;11820;48.738;9.092;2023-08-01T11:50:42;3.00;;;1.63;;
23302;SDS011;11820;48.738;9.092;2023-08-01T11:53:17;0.80;;;0.80;;
23302;SDS011;11820;48.738;9.092;2023-08-01T11:55:46;1.93;;;1.20;;
23302;SDS011;11820;48.738;9.092;2023-08-01T11:58:12;1.53;;;1.03;;
23302;SDS011;11820;48.738;9.092;2023-08-01T12:00:39;2.23;;;1.10;;
23302;SDS011;11820;48.738;9.092;2023-08-01T12:03:06;2.43;;;1.10;;
23302;SDS011;11820;48.738;9.092;2023-08-01T12:05:32;1.47;;;1.00;;
23302;SDS011;11820;48.738;9.092;2023-08-01T12:08:08;3.97;;;1.20;;
23302;SDS011;11820;48.738;9.092;2023-08-01T12:10:38;6.30;;;1.10;;
23302;SDS011;11820;48.738;9.092;2023-08-01T12:13:04;1.50;;;1.10;;
23302;SDS011;11820;48.738;9.092;2023-08-01T12:15:30;6.23;;;1.20;;
23302;SDS011;11820;48.738;9.092;2023-08-01T12:17:56;2.47;;;1.30;;
23302;SDS011;11820;48.738;9.092;2023-08-01T12:20:22;1.53;;;1.10;;
23302;SDS011;11820;48.738;9.092;2023-08-01T12:22:47;6.47;;;1.93;;
23302;SDS011;11820;48.738;9.092;2023-08-01T12:25:12;2.43;;;1.10;;
23302;SDS011;11820;48.738;9.092;2023-08-01T12:27:38;3.30;;;1.30;;
23302;SDS011;11820;48.738;9.092;2023-08-01T12:30:04;2.67;;;1.13;;
23302;SDS011;11820;48.738;9.092;2023-08-01T12:32:30;2.57;;;1.00;;
23302;SDS011;11820;48.738;9.092;2023-08-01T12:34:55;1.67;;;1.13;;
23302;SDS011;11820;48.738;9.092;2023-08-01T12:37:20;1.43;;;1.17;;
23302;SDS011;11820;48.738;9.092;2023-08-01T12:39:45;1.37;;;0.93;;
23302;SDS011;11820;48.738;9.092;2023-08-01T12:42:11;0.93;;;0.90;;
23302;SDS011;11820;48.738;9.092;2023-08-01T12:44:36;1.23;;;1.00;;
23302;SDS011;11820;48.738;9.092;2023-08-01T12:47:01;2.40;;;1.17;;
23302;SDS011;11820;48.738;9.092;2023-08-01T12:49:27;1.00;;;0.90;;
23302;SDS011;11820;48.738;9.092;2023-08-01T12:51:53;2.30;;;1.00;;
23302;SDS011;11820;48.738;9.092;2023-08-01T12:54:18;2.33;;;1.07;;
23302;SDS011;11820;48.738;9.092;2023-08-01T12:56:43;1.90;;;1.30;;
23302;SDS011;11820;48.738;9.092;2023-08-01T12:59:08;2.20;;;1.40;;
23302;SDS011;11820;48.738;9.092;2023-08-01T13:01:34;3.63;;;1.43;;
23302;SDS011;11820;48.738;9.092;2023-08-01T13:03:59;1.07;;;0.97;;
23302;SDS011;11820;48.738;9.092;2023-08-01T13:06:24;1.43;;;1.23;;
23302;SDS011;11820;48.738;9.092;2023-08-01T13:08:50;5.27;;;1.13;;
23302;SDS011;11820;48.738;9.092;2023-08-01T13:11:15;1.27;;;1.10;;
23302;SDS011;11820;48.738;9.092;2023-08-01T13:13:41;1.52;;;1.30;;
23302;SDS011;11820;48.738;9.092;2023-08-01T13:16:06;2.85;;;1.20;;
23302;SDS011;11820;48.738;9.092;2023-08-01T13:18:32;4.15;;;1.23;;
23302;SDS011;11820;48.738;9.092;2023-08-01T13:20:57;2.67;;;1.40;;
23302;SDS011;11820;48.738;9.092;2023-08-01T13:23:26;3.30;;;1.30;;
23302;SDS011;11820;48.738;9.092;2023-08-01T13:25:51;1.67;;;1.00;;
23302;SDS011;11820;48.738;9.092;2023-08-01T13:28:17;1.73;;;1.30;;
23302;SDS011;11820;48.738;9.092;2023-08-01T13:30:42;2.80;;;1.10;;
23302;SDS011;11820;48.738;9.092;2023-08-01T13:33:07;4.00;;;1.30;;
23302;SDS011;11820;48.738;9.092;2023-08-01T13:35:33;1.73;;;1.37;;
23302;SDS011;11820;48.738;9.092;2023-08-01T13:37:59;1.30;;;1.00;;
23302;SDS011;11820;48.738;9.092;2023-08-01T13:40:27;1.90;;;1.30;;
23302;SDS011;11820;48.738;9.092;2023-08-01T13:42:52;1.50;;;1.27;;
23302;SDS011;11820;48.738;9.092;2023-08-01T13:45:18;2.30;;;1.70;;
23302;SDS011;11820;48.738;9.092;2023-08-01T13:47:43;2.20;;;1.10;;
23302;SDS011;11820;48.738;9.092;2023-08-01T13:50:08;1.67;;;1.13;;
23302;SDS011;11820;48.738;9.092;2023-08-01T13:52:36;2.60;;;1.30;;
23302;SDS011;11820;48.738;9.092;2023-08-01T13:55:02;4.22;;;1.60;;
23302;SDS011;11820;48.738;9.092;2023-08-01T13:57:27;1.20;;;1.10;;
23302;SDS011;11820;48.738;9.092;2023-08-01T13:59:53;1.77;;;1.15;;
23302;SDS011;11820;48.738;9.092;2023-08-01T14:02:18;2.60;;;1.40;;
23302;SDS011;11820;48.738;9.092;2023-08-01T14:04:44;2.08;;;1.17;;
23302;SDS011;11820;48.738;9.092;2023-08-01T14:07:09;2.10;;;1.00;;
23302;SDS011;11820;48.738;9.092;2023-08-01T14:09:34;5.23;;;1.80;;
23302;SDS011;11820;48.738;9.092;2023-08-01T14:12:01;1.90;;;1.00;;
23302;SDS011;11820;48.738;9.092;2023-08-01T14:14:26;1.70;;;1.03;;
23302;SDS011;11820;48.738;9.092;2023-08-01T14:16:52;4.60;;;1.43;;
23302;SDS011;11820;48.738;9.092;2023-08-01T14:19:17;2.83;;;1.40;;
23302;SDS011;11820;48.738;9.092;2023-08-01T14:21:43;2.00;;;1.10;;
23302;SDS011;11820;48.738;9.092;2023-08-01T14:24:08;3.97;;;1.57;;
23302;SDS011;11820;48.738;9.092;2023-08-01T14:26:33;2.23;;;1.70;;
23302;SDS011;11820;48.738;9.092;2023-08-01T14:28:58;2.13;;;1.30;;
23302;SDS011;11820;48.738;9.092;2023-08-01T14:31:24;3.27;;;1.23;;
23302;SDS011;11820;48.738;9.092;2023-08-01T14:33:49;3.22;;;1.17;;
23302;SDS011;11820;48.738;9.092;2023-08-01T14:36:14;1.77;;;1.13;;
23302;SDS011;11820;48.738;9.092;2023-08-01T14:38:40;1.40;;;1.20;;
23302;SDS011;11820;48.738;9.092;2023-08-01T14:41:05;1.65;;;1.20;;
23302;SDS011;11820;48.738;9.092;2023-08-01T14:43:31;1.10;;;0.90;;
23302;SDS011;11820;48.738;9.092;2023-08-01T14:45:56;1.42;;;0.98;;
23302;SDS011;11820;48.738;9.092;2023-08-01T14:48:22;1.55;;;1.27;;